UUUK1: Marmaton R nr Uniontown nr Ft Scott

Data processed at Mon Apr 24 2017 21:06


All information presented herein is the property of the government of the United States of America and may be revised or deleted at any time without prior notice.
Dissemination of this information without the expressed written consent of the Public Affairs Office, Tulsa District U.S. Army Corps of Engineers is strictly prohibited.
These data are gathered electronically and, as presented, have not undergone any form of quality control. These data are not guaranteed to be valid or correct.
Go to home page.
Go to station list.
Go to station map.


Previous Day
Next Day
Current Day


    
SHEF ID:       UUUK1     MARMATON R NR UNIONTOWN, KS
STATION TYPE:  

               PRECIP     STAGE  RIV-FLOW  BAT-LOAD
                   in        ft       cfs      volt
              Ccp-Rev   Ccp-Rev   Ccp-Rev   Ccp-Rev
(US/Central)
04/24 00:00      0.00      2.13       236     12.71
04/24 01:00      0.00      2.09       230     12.65
04/24 02:00      0.00      2.05       224     12.65
04/24 03:00      0.00      2.00       218     12.65
04/24 04:00      0.00      1.97       213     12.60
04/24 05:00      0.00      1.93       207     12.60
04/24 06:00      0.00      1.90       204     12.60
04/24 07:00      0.00      1.87       199     12.60
04/24 08:00      0.00      1.84       195     12.54
04/24 09:00      0.00      1.81       191     12.54
04/24 10:00      0.00      1.78       186     13.42
04/24 11:00      0.00      1.75       183     13.42
04/24 12:00      0.00      1.72       179     13.36
04/24 13:00      0.00      1.70       177     13.12
04/24 14:00      0.00      1.67       172     13.36
04/24 15:00      0.00      1.65       170     13.65
04/24 16:00      0.00      1.63       167     13.30
04/24 17:00      0.00      1.60       163     13.12
04/24 18:00      0.00      1.58       160     13.00
04/24 19:00      0.00      1.55       154     13.00
04/24 20:00      0.00      1.53       151     12.89
04/24 21:00      0.00      1.50      ----     12.83
04/24 22:00      ----      ----      ----      ----
04/24 23:00      ----      ----      ----      ----